Time;durP1;ratioP1;P1;durP2;ratioP2;P2;SDS_P1;SDS_P2;PMS_P1;PMS_P2;Temp;Humidity;BMP_temperature;BMP_pressure;BME280_temperature;BME280_humidity;BME280_pressure;Samples;Min_cycle;Max_cycle;Signal;HPM_P1;HPM_P2
2021/10/10 00:01:01;;;;;;;21.10;13.85;;;;;;;;;;4925256;29;20108;-81
2021/10/10 00:03:28;;;;;;;17.35;12.52;;;;;;;;;;4924928;29;20038;-80
2021/10/10 00:05:54;;;;;;;19.83;13.68;;;;;;;;;;4894539;29;20040;-80
2021/10/10 00:08:21;;;;;;;18.77;12.85;;;;;;;;;;4909801;29;20071;-81
2021/10/10 00:10:48;;;;;;;17.42;13.82;;;;;;;;;;4940814;29;20054;-80
2021/10/10 00:13:15;;;;;;;20.35;13.32;;;;;;;;;;4909265;29;20044;-80
2021/10/10 00:15:42;;;;;;;19.42;13.98;;;;;;;;;;4894313;29;20050;-80
2021/10/10 00:18:08;;;;;;;22.55;13.40;;;;;;;;;;4909525;29;20063;-81
2021/10/10 00:20:35;;;;;;;18.63;12.77;;;;;;;;;;4924883;29;20050;-80
2021/10/10 00:23:02;;;;;;;20.48;13.52;;;;;;;;;;4940413;29;20032;-80
2021/10/10 00:25:34;;;;;;;22.20;13.70;;;;;;;;;;4939334;29;20091;-81
2021/10/10 00:28:00;;;;;;;18.90;12.00;;;;;;;;;;4924598;29;20028;-81
2021/10/10 00:30:27;;;;;;;21.00;12.68;;;;;;;;;;4894072;29;20038;-80
2021/10/10 00:32:54;;;;;;;18.42;11.93;;;;;;;;;;4924711;29;20036;-80
2021/10/10 00:35:21;;;;;;;21.98;12.73;;;;;;;;;;4924839;29;20058;-80
2021/10/10 00:37:47;;;;;;;16.73;11.95;;;;;;;;;;4924680;29;20042;-80
2021/10/10 00:40:14;;;;;;;17.58;11.45;;;;;;;;;;4924790;29;20075;-79
2021/10/10 00:42:41;;;;;;;17.30;11.63;;;;;;;;;;4937012;29;20075;-80
2021/10/10 00:45:08;;;;;;;18.33;10.70;;;;;;;;;;4898767;29;20056;-80
2021/10/10 00:47:36;;;;;;;17.27;11.50;;;;;;;;;;4914317;29;20056;-79
2021/10/10 00:50:04;;;;;;;17.80;11.48;;;;;;;;;;4898795;29;20052;-79
2021/10/10 00:52:31;;;;;;;18.17;11.10;;;;;;;;;;4894747;29;20524;-79
2021/10/10 00:54:58;;;;;;;16.38;10.70;;;;;;;;;;4895594;29;20527;-79
2021/10/10 00:57:25;;;;;;;21.90;11.63;;;;;;;;;;4895928;29;20064;-79
2021/10/10 00:59:52;;;;;;;17.05;11.25;;;;;;;;;;4897699;29;20049;-79
2021/10/10 01:02:18;;;;;;;18.60;12.05;;;;;;;;;;4894984;29;20075;-80
2021/10/10 01:04:45;;;;;;;18.00;11.48;;;;;;;;;;4897719;29;20064;-80
2021/10/10 01:07:12;;;;;;;16.50;11.55;;;;;;;;;;4887090;29;20052;-80
2021/10/10 01:09:39;;;;;;;16.52;12.20;;;;;;;;;;4908394;29;20063;-80
2021/10/10 01:12:06;;;;;;;19.48;12.05;;;;;;;;;;4896337;29;20052;-80
2021/10/10 01:14:34;;;;;;;21.00;11.25;;;;;;;;;;4910424;29;20063;-81
2021/10/10 01:17:01;;;;;;;18.17;13.27;;;;;;;;;;4911570;29;20062;-82
2021/10/10 01:19:30;;;;;;;19.10;12.65;;;;;;;;;;4879893;29;20067;-82
2021/10/10 01:21:58;;;;;;;21.30;13.40;;;;;;;;;;4895160;29;20060;-80
2021/10/10 01:24:25;;;;;;;18.45;13.05;;;;;;;;;;4893855;29;20052;-80
2021/10/10 01:26:51;;;;;;;21.73;12.82;;;;;;;;;;4923162;29;20050;-79
2021/10/10 01:29:18;;;;;;;20.60;13.05;;;;;;;;;;4927534;29;20096;-79
2021/10/10 01:31:45;;;;;;;19.88;12.90;;;;;;;;;;4895732;29;21065;-80
2021/10/10 01:34:12;;;;;;;18.63;12.35;;;;;;;;;;4911021;29;20135;-80
2021/10/10 01:36:39;;;;;;;17.75;12.13;;;;;;;;;;4894686;29;20115;-80
2021/10/10 01:39:06;;;;;;;20.73;13.05;;;;;;;;;;4879919;29;20060;-80
2021/10/10 01:41:32;;;;;;;16.27;12.48;;;;;;;;;;4889271;29;20055;-80
2021/10/10 01:43:59;;;;;;;20.67;13.50;;;;;;;;;;4901940;29;20059;-79
2021/10/10 01:46:26;;;;;;;23.17;13.02;;;;;;;;;;4901607;29;20058;-80
2021/10/10 01:48:53;;;;;;;17.52;11.52;;;;;;;;;;4934135;29;20056;-80
2021/10/10 01:51:19;;;;;;;17.38;13.00;;;;;;;;;;4924255;29;20056;-80
2021/10/10 01:53:46;;;;;;;16.70;13.07;;;;;;;;;;4908553;29;20052;-80
2021/10/10 01:56:15;;;;;;;21.27;13.10;;;;;;;;;;4930535;29;20423;-80
2021/10/10 01:58:42;;;;;;;19.25;13.95;;;;;;;;;;4906484;29;20078;-79
2021/10/10 02:01:09;;;;;;;17.25;13.68;;;;;;;;;;4917285;29;20048;-81
2021/10/10 02:03:36;;;;;;;18.88;13.70;;;;;;;;;;4901976;29;20493;-81
2021/10/10 02:06:03;;;;;;;22.55;14.10;;;;;;;;;;4887128;29;20056;-80
2021/10/10 02:08:29;;;;;;;27.88;14.27;;;;;;;;;;4872990;29;20067;-80
2021/10/10 02:10:56;;;;;;;23.52;14.55;;;;;;;;;;4905589;29;20427;-81
2021/10/10 02:13:23;;;;;;;20.33;15.05;;;;;;;;;;4888686;29;20146;-81
2021/10/10 02:15:49;;;;;;;25.35;14.95;;;;;;;;;;4917535;29;20501;-80
2021/10/10 02:18:16;;;;;;;25.42;14.70;;;;;;;;;;4918613;29;20465;-80
2021/10/10 02:20:43;;;;;;;21.67;13.85;;;;;;;;;;4903323;29;20063;-80
2021/10/10 02:23:10;;;;;;;21.20;14.60;;;;;;;;;;4918403;29;20052;-80
2021/10/10 02:25:36;;;;;;;19.17;13.80;;;;;;;;;;4902494;29;20063;-80
2021/10/10 02:28:03;;;;;;;19.02;14.15;;;;;;;;;;4899166;29;20052;-80
2021/10/10 02:30:30;;;;;;;20.75;14.23;;;;;;;;;;4913457;29;20251;-80
2021/10/10 02:32:57;;;;;;;20.77;14.32;;;;;;;;;;4913022;29;20070;-80
2021/10/10 02:35:24;;;;;;;21.30;14.43;;;;;;;;;;4897600;29;20062;-81
2021/10/10 02:37:50;;;;;;;21.58;15.07;;;;;;;;;;4882208;29;20075;-80
2021/10/10 02:40:17;;;;;;;20.42;15.27;;;;;;;;;;4900457;29;20052;-81
2021/10/10 02:42:44;;;;;;;22.35;14.98;;;;;;;;;;4916268;29;20420;-81
2021/10/10 02:45:11;;;;;;;23.05;15.80;;;;;;;;;;4900558;29;20431;-79
2021/10/10 02:47:38;;;;;;;19.88;14.55;;;;;;;;;;4900471;29;20135;-79
2021/10/10 02:50:05;;;;;;;21.00;14.20;;;;;;;;;;4900609;29;20258;-79
2021/10/10 02:52:32;;;;;;;24.15;14.25;;;;;;;;;;4916011;29;20052;-79
2021/10/10 02:54:58;;;;;;;22.58;14.93;;;;;;;;;;4916206;29;20424;-79
2021/10/10 02:57:25;;;;;;;18.55;13.80;;;;;;;;;;4900419;29;20052;-80
2021/10/10 02:59:52;;;;;;;21.25;14.57;;;;;;;;;;4885123;29;20052;-78
2021/10/10 03:02:19;;;;;;;21.60;14.45;;;;;;;;;;4884579;29;20488;-78
2021/10/10 03:04:46;;;;;;;19.77;14.13;;;;;;;;;;4884923;29;20052;-80
2021/10/10 03:07:12;;;;;;;20.35;13.80;;;;;;;;;;4869137;29;20056;-79
2021/10/10 03:09:39;;;;;;;20.02;14.70;;;;;;;;;;4885075;29;20060;-78
2021/10/10 03:12:06;;;;;;;18.45;13.77;;;;;;;;;;4900008;29;20056;-78
2021/10/10 03:14:32;;;;;;;17.90;12.52;;;;;;;;;;4900617;29;20500;-78
2021/10/10 03:16:59;;;;;;;20.52;14.23;;;;;;;;;;4870709;29;20056;-78
2021/10/10 03:19:26;;;;;;;21.85;14.50;;;;;;;;;;4918404;29;20082;-79
2021/10/10 03:21:52;;;;;;;18.55;13.63;;;;;;;;;;4902088;29;20054;-79
2021/10/10 03:24:19;;;;;;;23.88;14.80;;;;;;;;;;4902074;29;20056;-79
2021/10/10 03:26:46;;;;;;;22.35;14.57;;;;;;;;;;4885394;29;20052;-78
2021/10/10 03:29:13;;;;;;;19.42;14.07;;;;;;;;;;4900895;29;20063;-78
2021/10/10 03:31:39;;;;;;;20.67;13.13;;;;;;;;;;4899531;29;20059;-78
2021/10/10 03:34:06;;;;;;;17.23;13.48;;;;;;;;;;4899604;29;20086;-78
2021/10/10 03:36:33;;;;;;;22.38;13.27;;;;;;;;;;4899628;29;20075;-78
2021/10/10 03:38:59;;;;;;;20.35;13.48;;;;;;;;;;4884185;29;20066;-78
2021/10/10 03:41:26;;;;;;;20.10;13.32;;;;;;;;;;4899250;29;20447;-79
2021/10/10 03:43:53;;;;;;;18.15;12.80;;;;;;;;;;4899576;29;20063;-75
2021/10/10 03:46:19;;;;;;;19.58;13.43;;;;;;;;;;4899485;29;20059;-75
2021/10/10 03:48:46;;;;;;;21.15;12.80;;;;;;;;;;4883918;29;20063;-78
2021/10/10 03:51:13;;;;;;;18.02;12.40;;;;;;;;;;4897787;29;20064;-78
2021/10/10 03:56:16;;;;;;;17.92;13.00;;;;;;;;;;4916193;29;20579;-78
2021/10/10 03:58:43;;;;;;;18.77;13.25;;;;;;;;;;4899482;29;20063;-78
2021/10/10 04:01:09;;;;;;;19.60;13.07;;;;;;;;;;4899223;29;20083;-77
2021/10/10 04:03:37;;;;;;;19.08;13.63;;;;;;;;;;4914587;29;20422;-78
2021/10/10 04:06:04;;;;;;;19.60;12.80;;;;;;;;;;4899304;29;20071;-78
2021/10/10 04:08:31;;;;;;;18.70;13.52;;;;;;;;;;4899249;29;20056;-78
2021/10/10 04:10:58;;;;;;;17.88;12.63;;;;;;;;;;4914921;29;20060;-78
2021/10/10 04:13:24;;;;;;;20.73;13.32;;;;;;;;;;4914879;29;20257;-79
2021/10/10 04:15:51;;;;;;;18.25;13.38;;;;;;;;;;4899163;29;20056;-78
2021/10/10 04:18:18;;;;;;;20.52;13.02;;;;;;;;;;4900178;29;20457;-78
2021/10/10 04:20:45;;;;;;;18.40;12.93;;;;;;;;;;4915629;29;20062;-78
2021/10/10 04:23:11;;;;;;;17.10;12.63;;;;;;;;;;4914474;29;20060;-78
2021/10/10 04:25:38;;;;;;;17.90;13.50;;;;;;;;;;4914230;29;20052;-78
2021/10/10 04:28:05;;;;;;;17.42;13.00;;;;;;;;;;4895913;29;20059;-79
2021/10/10 04:30:32;;;;;;;21.73;14.07;;;;;;;;;;4913915;29;20052;-78
2021/10/10 04:32:58;;;;;;;18.98;13.32;;;;;;;;;;4915116;29;20048;-79
2021/10/10 04:35:26;;;;;;;19.08;13.55;;;;;;;;;;4898932;29;20060;-79
2021/10/10 04:37:53;;;;;;;17.58;13.25;;;;;;;;;;4914332;29;20063;-80
2021/10/10 04:40:20;;;;;;;18.83;13.05;;;;;;;;;;4882793;29;20084;-79
2021/10/10 04:42:48;;;;;;;22.10;14.15;;;;;;;;;;4915020;29;20048;-78
2021/10/10 04:45:14;;;;;;;20.23;13.55;;;;;;;;;;4883465;29;20522;-79
2021/10/10 04:47:41;;;;;;;20.48;14.18;;;;;;;;;;4898340;29;20055;-79
2021/10/10 04:50:08;;;;;;;17.35;12.52;;;;;;;;;;4883328;29;20100;-80
2021/10/10 04:52:35;;;;;;;22.95;13.30;;;;;;;;;;4883005;29;20070;-79
2021/10/10 04:55:04;;;;;;;19.17;12.23;;;;;;;;;;4910905;29;20059;-80
2021/10/10 04:57:33;;;;;;;19.15;11.98;;;;;;;;;;4898820;29;20512;-81
2021/10/10 04:59:59;;;;;;;19.92;12.70;;;;;;;;;;4913826;29;20052;-81
2021/10/10 05:02:26;;;;;;;19.35;13.00;;;;;;;;;;4883780;29;20052;-81
2021/10/10 05:04:53;;;;;;;19.33;12.45;;;;;;;;;;4913621;29;20059;-78
2021/10/10 05:07:20;;;;;;;17.67;11.88;;;;;;;;;;4898596;29;20334;-79
2021/10/10 05:09:47;;;;;;;16.40;11.98;;;;;;;;;;4914463;29;20424;-78
2021/10/10 05:12:14;;;;;;;17.73;12.50;;;;;;;;;;4898101;29;20054;-80
2021/10/10 05:14:41;;;;;;;21.98;12.00;;;;;;;;;;4882881;29;20063;-80
2021/10/10 05:17:08;;;;;;;17.30;12.40;;;;;;;;;;4913998;29;20052;-79
2021/10/10 05:19:35;;;;;;;17.95;13.00;;;;;;;;;;4882937;29;20059;-79
2021/10/10 05:22:02;;;;;;;20.10;12.65;;;;;;;;;;4882665;29;20058;-79
2021/10/10 05:24:29;;;;;;;18.10;13.15;;;;;;;;;;4867354;29;20060;-79
2021/10/10 05:26:55;;;;;;;18.73;11.82;;;;;;;;;;4898178;29;20071;-79
2021/10/10 05:29:22;;;;;;;17.92;12.02;;;;;;;;;;4913965;29;20059;-79
2021/10/10 05:31:49;;;;;;;21.55;13.25;;;;;;;;;;4898274;29;20062;-78
2021/10/10 05:34:16;;;;;;;21.42;11.75;;;;;;;;;;4898160;29;20059;-79
2021/10/10 05:36:42;;;;;;;21.75;13.07;;;;;;;;;;4898429;29;20137;-79
2021/10/10 05:39:09;;;;;;;17.75;12.27;;;;;;;;;;4910483;29;20505;-79
2021/10/10 05:41:36;;;;;;;19.95;12.90;;;;;;;;;;4895084;29;20056;-80
2021/10/10 05:44:02;;;;;;;23.60;14.18;;;;;;;;;;4879988;29;20449;-80
2021/10/10 05:46:29;;;;;;;16.77;12.60;;;;;;;;;;4896368;29;20057;-80
2021/10/10 05:48:56;;;;;;;19.52;12.75;;;;;;;;;;4906865;29;20266;-81
2021/10/10 05:51:23;;;;;;;18.25;13.15;;;;;;;;;;4885915;29;20060;-80
2021/10/10 05:53:50;;;;;;;19.20;12.05;;;;;;;;;;4915222;29;20277;-80
2021/10/10 05:56:17;;;;;;;17.67;11.95;;;;;;;;;;4885545;29;20516;-80
2021/10/10 05:58:45;;;;;;;19.17;12.95;;;;;;;;;;4901606;29;20501;-79
2021/10/10 06:01:31;;;;;;;15.75;12.43;;;;;;;;;;4905287;29;20076;-80
2021/10/10 06:03:58;;;;;;;15.30;11.52;;;;;;;;;;4902851;29;20075;-80
2021/10/10 06:06:25;;;;;;;20.98;13.20;;;;;;;;;;4918922;29;20479;-80
2021/10/10 06:08:53;;;;;;;20.00;13.63;;;;;;;;;;4903288;29;20052;-80
2021/10/10 06:11:19;;;;;;;17.27;12.45;;;;;;;;;;4904115;29;20059;-80
2021/10/10 06:13:46;;;;;;;19.52;12.85;;;;;;;;;;4903140;29;20067;-79
2021/10/10 06:16:13;;;;;;;19.23;13.60;;;;;;;;;;4915197;29;20056;-80
2021/10/10 06:18:40;;;;;;;17.80;12.95;;;;;;;;;;4900239;29;20143;-80
2021/10/10 06:21:07;;;;;;;18.10;12.73;;;;;;;;;;4884035;29;20052;-78
2021/10/10 06:23:34;;;;;;;19.85;13.60;;;;;;;;;;4883116;29;20060;-78
2021/10/10 06:26:01;;;;;;;19.10;13.07;;;;;;;;;;4898618;29;20060;-81
2021/10/10 06:28:27;;;;;;;21.65;13.70;;;;;;;;;;4886544;29;20054;-80
2021/10/10 06:30:54;;;;;;;23.48;14.35;;;;;;;;;;4902466;29;20516;-79
2021/10/10 06:33:21;;;;;;;18.33;13.00;;;;;;;;;;4917830;29;20044;-75
2021/10/10 06:35:47;;;;;;;20.23;13.75;;;;;;;;;;4900885;29;20056;-73
2021/10/10 06:38:14;;;;;;;18.25;13.02;;;;;;;;;;4901123;29;20062;-83
2021/10/10 06:40:41;;;;;;;24.90;15.05;;;;;;;;;;4906918;29;20406;-83
2021/10/10 06:43:08;;;;;;;19.92;13.88;;;;;;;;;;4917459;29;20072;-83
2021/10/10 06:45:34;;;;;;;21.45;13.55;;;;;;;;;;4901696;29;20060;-81
2021/10/10 06:48:01;;;;;;;22.35;14.63;;;;;;;;;;4887085;29;20057;-84
2021/10/10 06:50:28;;;;;;;19.88;14.27;;;;;;;;;;4897689;29;20143;-83
2021/10/10 06:52:55;;;;;;;25.38;14.63;;;;;;;;;;4897211;29;20062;-84
2021/10/10 06:55:22;;;;;;;21.23;14.82;;;;;;;;;;4883236;29;20402;-85
2021/10/10 06:57:50;;;;;;;20.02;14.18;;;;;;;;;;4914929;29;20474;-85
2021/10/10 07:00:17;;;;;;;22.15;15.93;;;;;;;;;;4914782;29;20522;-86
2021/10/10 07:02:45;;;;;;;24.02;15.65;;;;;;;;;;4913794;29;20056;-86
2021/10/10 07:05:13;;;;;;;23.55;15.45;;;;;;;;;;4898866;29;20154;-86
2021/10/10 07:07:40;;;;;;;24.02;14.60;;;;;;;;;;4885107;29;20063;-86
2021/10/10 07:10:08;;;;;;;25.05;15.63;;;;;;;;;;4912372;29;20068;-86
2021/10/10 07:12:35;;;;;;;24.80;16.50;;;;;;;;;;4880793;29;20480;-85
2021/10/10 07:15:02;;;;;;;22.75;15.32;;;;;;;;;;4896854;29;20061;-86
2021/10/10 07:17:30;;;;;;;22.17;15.30;;;;;;;;;;4881831;29;20060;-84
2021/10/10 07:23:26;;;;;;;19.90;15.18;;;;;;;;;;4893587;29;20571;-84
2021/10/10 07:25:44;;;;;;;20.23;14.82;;;;;;;;;;4917977;29;20063;-80
2021/10/10 07:28:11;;;;;;;25.98;14.63;;;;;;;;;;4898739;29;20058;-83
2021/10/10 07:30:38;;;;;;;20.73;15.52;;;;;;;;;;4899122;29;20056;-82
2021/10/10 07:33:04;;;;;;;21.73;15.45;;;;;;;;;;4898822;29;20447;-82
2021/10/10 07:35:31;;;;;;;23.75;15.82;;;;;;;;;;4883782;29;20428;-81
2021/10/10 07:37:58;;;;;;;22.92;15.98;;;;;;;;;;4898940;29;20060;-84
2021/10/10 07:40:25;;;;;;;25.42;16.27;;;;;;;;;;4899952;29;20056;-81
2021/10/10 07:42:52;;;;;;;20.25;15.32;;;;;;;;;;4914685;29;20055;-73
2021/10/10 07:45:21;;;;;;;23.58;15.60;;;;;;;;;;4915099;29;20416;-74
2021/10/10 07:47:51;;;;;;;21.27;14.70;;;;;;;;;;4883398;29;20074;-74
2021/10/10 07:50:20;;;;;;;25.15;15.38;;;;;;;;;;4902397;29;20087;-80
2021/10/10 07:52:47;;;;;;;24.33;15.27;;;;;;;;;;4889510;29;20083;-82
2021/10/10 07:55:14;;;;;;;23.48;15.48;;;;;;;;;;4910084;29;20507;-80
2021/10/10 07:57:41;;;;;;;22.85;16.00;;;;;;;;;;4924659;29;20055;-80
2021/10/10 08:00:09;;;;;;;22.85;15.73;;;;;;;;;;4909696;29;20431;-78
2021/10/10 08:02:58;;;;;;;20.85;13.93;;;;;;;;;;4889970;29;20423;-83
2021/10/10 08:05:27;;;;;;;22.33;15.63;;;;;;;;;;4900418;23;20060;-70
2021/10/10 08:07:54;;;;;;;21.65;14.73;;;;;;;;;;4877293;29;20053;-70
2021/10/10 08:10:21;;;;;;;23.98;15.02;;;;;;;;;;4861887;29;20053;-70
2021/10/10 08:12:48;;;;;;;23.23;15.20;;;;;;;;;;4892371;29;20056;-71
2021/10/10 08:15:15;;;;;;;23.42;15.45;;;;;;;;;;4877303;29;20572;-70
2021/10/10 08:17:42;;;;;;;20.73;14.15;;;;;;;;;;4862065;29;20053;-69
2021/10/10 08:20:09;;;;;;;19.23;13.50;;;;;;;;;;4881688;29;20503;-71
2021/10/10 08:22:37;;;;;;;20.23;13.65;;;;;;;;;;4880020;29;20056;-69
2021/10/10 08:25:07;;;;;;;26.25;15.23;;;;;;;;;;4896888;29;20052;-70
2021/10/10 08:27:41;;;;;;;17.67;13.10;;;;;;;;;;4880764;29;20167;-71
2021/10/10 08:30:10;;;;;;;22.23;14.45;;;;;;;;;;4880386;29;20052;-70
2021/10/10 08:32:37;;;;;;;20.08;13.73;;;;;;;;;;4865011;29;20060;-69
2021/10/10 08:35:06;;;;;;;23.38;13.40;;;;;;;;;;4864151;29;20057;-68
2021/10/10 08:37:33;;;;;;;21.15;13.50;;;;;;;;;;4880184;29;20108;-69
2021/10/10 08:40:04;;;;;;;19.48;13.57;;;;;;;;;;4865851;29;20052;-69
2021/10/10 08:42:34;;;;;;;24.55;13.98;;;;;;;;;;4879698;29;20500;-68
2021/10/10 08:45:10;;;;;;;19.85;13.18;;;;;;;;;;4880441;29;20057;-68
2021/10/10 08:47:43;;;;;;;19.40;12.93;;;;;;;;;;4880605;29;20116;-68
2021/10/10 08:50:25;;;;;;;20.48;12.70;;;;;;;;;;4848729;29;20092;-68
2021/10/10 08:52:56;;;;;;;23.88;13.93;;;;;;;;;;4877803;29;20093;-68
2021/10/10 08:55:28;;;;;;;18.20;12.13;;;;;;;;;;4877857;29;20401;-68
2021/10/10 08:57:55;;;;;;;21.10;13.63;;;;;;;;;;4846894;29;20049;-68
2021/10/10 09:00:29;;;;;;;21.60;12.80;;;;;;;;;;4861364;29;20109;-66
2021/10/10 09:02:56;;;;;;;18.40;11.90;;;;;;;;;;4875918;29;20055;-66
2021/10/10 09:05:26;;;;;;;22.60;11.85;;;;;;;;;;4879707;29;20440;-66
2021/10/10 09:07:54;;;;;;;21.13;11.95;;;;;;;;;;4896618;29;20057;-66
2021/10/10 09:10:27;;;;;;;19.75;11.98;;;;;;;;;;4896358;29;20527;-66
2021/10/10 09:13:14;;;;;;;18.23;12.05;;;;;;;;;;4896161;29;20053;-66
2021/10/10 09:15:42;;;;;;;20.27;11.98;;;;;;;;;;4879089;29;20104;-65
2021/10/10 09:18:10;;;;;;;20.85;12.07;;;;;;;;;;4879724;29;20099;-66
2021/10/10 09:20:38;;;;;;;20.13;12.30;;;;;;;;;;4896145;29;20057;-66
2021/10/10 09:23:17;;;;;;;22.08;12.95;;;;;;;;;;4879681;29;20104;-66
2021/10/10 09:25:53;;;;;;;20.40;12.20;;;;;;;;;;4898225;29;20053;-65
2021/10/10 09:28:25;;;;;;;17.02;11.73;;;;;;;;;;4883180;29;20108;-66
2021/10/10 09:30:55;;;;;;;17.88;11.30;;;;;;;;;;4883369;29;20060;-66
2021/10/10 09:33:40;;;;;;;19.73;12.05;;;;;;;;;;4899543;29;20764;-67
2021/10/10 09:36:15;;;;;;;23.35;11.43;;;;;;;;;;4883364;29;20088;-67
2021/10/10 09:38:46;;;;;;;18.45;11.38;;;;;;;;;;4883934;29;20053;-66
2021/10/10 09:41:22;;;;;;;23.48;12.40;;;;;;;;;;4868753;29;20413;-67
2021/10/10 09:43:59;;;;;;;20.40;11.10;;;;;;;;;;4869653;29;20480;-67
2021/10/10 09:46:27;;;;;;;18.10;11.43;;;;;;;;;;4867946;29;20109;-67
2021/10/10 09:48:54;;;;;;;19.10;10.88;;;;;;;;;;4883050;29;20100;-67
2021/10/10 09:51:34;;;;;;;20.95;10.35;;;;;;;;;;4867194;29;20056;-67
2021/10/10 09:54:05;;;;;;;15.27;9.60;;;;;;;;;;4899490;29;20418;-67
2021/10/10 09:56:33;;;;;;;18.08;10.98;;;;;;;;;;4856954;29;20428;-67
2021/10/10 09:58:59;;;;;;;16.00;10.35;;;;;;;;;;4864106;29;20057;-67
2021/10/10 10:01:29;;;;;;;17.00;9.68;;;;;;;;;;4880367;29;20056;-67
2021/10/10 10:04:03;;;;;;;17.63;9.63;;;;;;;;;;4849289;29;20049;-67
2021/10/10 10:06:33;;;;;;;22.38;11.80;;;;;;;;;;4880489;29;20061;-67
2021/10/10 10:09:07;;;;;;;16.35;10.15;;;;;;;;;;4849243;29;20136;-67
2021/10/10 10:11:35;;;;;;;16.38;9.38;;;;;;;;;;4860552;29;20501;-67
2021/10/10 10:14:03;;;;;;;13.52;9.40;;;;;;;;;;4861479;29;20050;-67
2021/10/10 10:16:31;;;;;;;17.73;9.85;;;;;;;;;;4859131;29;20053;-67
2021/10/10 10:18:59;;;;;;;16.23;10.52;;;;;;;;;;4860559;29;20057;-67
2021/10/10 10:21:27;;;;;;;13.18;9.95;;;;;;;;;;4875550;29;20454;-67
2021/10/10 10:23:57;;;;;;;18.30;10.38;;;;;;;;;;4861607;29;20046;-67
2021/10/10 10:26:23;;;;;;;14.10;10.20;;;;;;;;;;4875603;29;20353;-67
2021/10/10 10:28:50;;;;;;;14.82;10.13;;;;;;;;;;4875607;29;20531;-67
2021/10/10 10:31:17;;;;;;;18.13;10.35;;;;;;;;;;4875485;29;20065;-67
2021/10/10 10:33:43;;;;;;;12.07;8.35;;;;;;;;;;4860491;29;20114;-67
2021/10/10 10:36:10;;;;;;;12.48;8.55;;;;;;;;;;4874820;29;20050;-67
2021/10/10 10:38:44;;;;;;;14.95;9.00;;;;;;;;;;4861049;29;20121;-67
2021/10/10 10:41:45;;;;;;;17.58;9.80;;;;;;;;;;4878787;29;20079;-66
2021/10/10 10:44:44;;;;;;;17.38;10.57;;;;;;;;;;4881346;29;20049;-67
2021/10/10 10:47:25;;;;;;;20.83;10.05;;;;;;;;;;4863365;29;20052;-68
2021/10/10 10:49:52;;;;;;;17.92;9.27;;;;;;;;;;4848105;29;20057;-68
2021/10/10 10:52:29;;;;;;;20.05;10.25;;;;;;;;;;4879451;29;20049;-68
2021/10/10 10:55:12;;;;;;;15.23;9.25;;;;;;;;;;4879696;29;20057;-68
2021/10/10 10:57:54;;;;;;;16.08;9.05;;;;;;;;;;4865184;29;20057;-68
2021/10/10 11:00:22;;;;;;;14.00;9.07;;;;;;;;;;4879451;29;20060;-68
2021/10/10 11:02:59;;;;;;;13.07;8.60;;;;;;;;;;4878152;29;20053;-69
2021/10/10 11:05:47;;;;;;;15.02;8.15;;;;;;;;;;4879211;29;20069;-68
2021/10/10 11:08:16;;;;;;;13.35;8.65;;;;;;;;;;4863206;29;20053;-68
2021/10/10 11:11:07;;;;;;;13.02;8.55;;;;;;;;;;4892127;29;20056;-68
2021/10/10 11:13:34;;;;;;;15.20;9.98;;;;;;;;;;4890860;29;20060;-68
2021/10/10 11:16:20;;;;;;;18.65;11.40;;;;;;;;;;4897537;29;20059;-67
2021/10/10 11:18:58;;;;;;;16.80;9.77;;;;;;;;;;4897846;29;20071;-67
2021/10/10 11:21:29;;;;;;;14.55;9.85;;;;;;;;;;4874704;29;20056;-66
2021/10/10 11:23:57;;;;;;;13.13;8.60;;;;;;;;;;4861557;29;20094;-72
2021/10/10 11:26:27;;;;;;;16.33;8.57;;;;;;;;;;4839625;29;20049;-70
2021/10/10 11:29:01;;;;;;;12.43;7.97;;;;;;;;;;4845693;29;20063;-74
2021/10/10 11:31:30;;;;;;;14.05;8.23;;;;;;;;;;4842967;29;20045;-71
2021/10/10 11:34:07;;;;;;;11.65;7.72;;;;;;;;;;4881334;29;20136;-74
2021/10/10 11:36:37;;;;;;;11.40;8.18;;;;;;;;;;4883148;29;20049;-76
2021/10/10 11:39:31;;;;;;;12.63;8.35;;;;;;;;;;4882709;29;20063;-74
2021/10/10 11:42:04;;;;;;;12.57;7.85;;;;;;;;;;4853821;29;20496;-75
2021/10/10 11:44:39;;;;;;;11.60;8.00;;;;;;;;;;4856376;29;20759;-72
2021/10/10 11:47:16;;;;;;;16.30;8.77;;;;;;;;;;4868317;29;20108;-73
2021/10/10 11:49:45;;;;;;;11.25;7.75;;;;;;;;;;4870254;29;20063;-75
2021/10/10 11:52:25;;;;;;;11.77;7.78;;;;;;;;;;4860377;29;20104;-73
2021/10/10 11:54:59;;;;;;;11.18;7.18;;;;;;;;;;4868653;29;20053;-70
2021/10/10 11:57:27;;;;;;;11.75;8.02;;;;;;;;;;4859789;29;20063;-69
2021/10/10 11:59:55;;;;;;;12.75;7.53;;;;;;;;;;4873468;29;20065;-73
2021/10/10 12:02:33;;;;;;;14.90;8.45;;;;;;;;;;4859347;29;20053;-74
2021/10/10 12:05:07;;;;;;;15.25;8.93;;;;;;;;;;4870783;29;20109;-72
2021/10/10 12:07:36;;;;;;;12.13;8.13;;;;;;;;;;4865171;29;20113;-71
2021/10/10 12:10:04;;;;;;;13.18;8.40;;;;;;;;;;4873699;29;20508;-74
2021/10/10 12:12:31;;;;;;;13.63;8.35;;;;;;;;;;4884409;29;20179;-71
2021/10/10 12:14:59;;;;;;;26.85;7.85;;;;;;;;;;4853092;29;20497;-71
2021/10/10 12:17:34;;;;;;;9.30;6.47;;;;;;;;;;4871898;29;20076;-73
2021/10/10 12:20:21;;;;;;;11.13;6.80;;;;;;;;;;4865988;29;20053;-74
2021/10/10 12:22:57;;;;;;;10.32;6.60;;;;;;;;;;4872983;29;20056;-74
2021/10/10 12:25:27;;;;;;;10.18;6.88;;;;;;;;;;4879767;29;20085;-76
2021/10/10 12:28:03;;;;;;;9.75;6.53;;;;;;;;;;4890027;29;20080;-75
2021/10/10 12:30:56;;;;;;;11.85;7.00;;;;;;;;;;4874671;29;20084;-73
2021/10/10 12:33:31;;;;;;;10.75;6.68;;;;;;;;;;4876137;29;20517;-73
2021/10/10 12:36:00;;;;;;;11.10;6.68;;;;;;;;;;4881566;29;20049;-72
2021/10/10 12:38:53;;;;;;;8.88;6.07;;;;;;;;;;4872334;29;20132;-71
2021/10/10 12:41:20;;;;;;;11.48;7.38;;;;;;;;;;4850611;29;20080;-72
2021/10/10 12:44:03;;;;;;;9.93;6.38;;;;;;;;;;4868309;29;20100;-72
2021/10/10 12:47:08;;;;;;;10.40;7.47;;;;;;;;;;4870662;29;20069;-68
2021/10/10 12:49:35;;;;;;;8.38;6.20;;;;;;;;;;4826538;29;20570;-70
2021/10/10 12:52:09;;;;;;;8.57;7.50;;;;;;;;;;4810744;29;20505;-73
2021/10/10 12:54:45;;;;;;;9.38;6.35;;;;;;;;;;4852239;29;20049;-72
2021/10/10 12:57:13;;;;;;;11.10;6.78;;;;;;;;;;4874709;29;20081;-72
2021/10/10 12:59:49;;;;;;;10.35;6.28;;;;;;;;;;4865523;29;20056;-73
2021/10/10 13:02:17;;;;;;;13.52;7.88;;;;;;;;;;4882697;29;20059;-73
2021/10/10 13:04:44;;;;;;;8.43;6.22;;;;;;;;;;4863644;29;20493;-72
2021/10/10 13:07:14;;;;;;;14.32;7.57;;;;;;;;;;4877877;29;20053;-75
2021/10/10 13:09:44;;;;;;;11.68;7.13;;;;;;;;;;4875444;29;20048;-76
2021/10/10 13:12:19;;;;;;;12.25;6.60;;;;;;;;;;4877376;29;20145;-75
2021/10/10 13:14:47;;;;;;;10.20;7.10;;;;;;;;;;4881369;29;20398;-74
2021/10/10 13:17:14;;;;;;;8.07;6.35;;;;;;;;;;4856241;29;20493;-73
2021/10/10 13:19:41;;;;;;;8.98;6.53;;;;;;;;;;4871080;29;20049;-72
2021/10/10 13:22:08;;;;;;;10.70;6.65;;;;;;;;;;4861416;29;20053;-73
2021/10/10 13:24:35;;;;;;;10.27;6.63;;;;;;;;;;4861866;29;20522;-73
2021/10/10 13:27:01;;;;;;;9.23;6.50;;;;;;;;;;4878227;29;20057;-70
2021/10/10 13:29:28;;;;;;;9.50;6.28;;;;;;;;;;4885245;29;20057;-70
2021/10/10 13:31:54;;;;;;;9.70;6.55;;;;;;;;;;4854720;29;20207;-69
2021/10/10 13:34:22;;;;;;;12.88;7.28;;;;;;;;;;4868484;29;20052;-69
2021/10/10 13:36:53;;;;;;;9.63;6.80;;;;;;;;;;4882306;29;20055;-69
2021/10/10 13:39:20;;;;;;;10.85;6.35;;;;;;;;;;4861493;29;20094;-69
2021/10/10 13:41:47;;;;;;;10.18;6.78;;;;;;;;;;4861693;29;20076;-69
2021/10/10 13:44:14;;;;;;;11.07;6.47;;;;;;;;;;4883201;29;20049;-72
2021/10/10 13:46:41;;;;;;;10.50;7.00;;;;;;;;;;4876651;29;20572;-72
2021/10/10 13:49:08;;;;;;;8.55;6.13;;;;;;;;;;4867699;29;20061;-69
2021/10/10 13:51:34;;;;;;;9.10;6.45;;;;;;;;;;4867625;29;20095;-69
2021/10/10 13:54:01;;;;;;;12.30;7.93;;;;;;;;;;4881362;29;20097;-75
2021/10/10 13:56:28;;;;;;;11.43;7.18;;;;;;;;;;4861746;29;20053;-72
2021/10/10 13:58:56;;;;;;;9.20;6.70;;;;;;;;;;4880772;29;20060;-73
2021/10/10 14:01:23;;;;;;;10.73;6.82;;;;;;;;;;4861118;29;20049;-72
2021/10/10 14:03:50;;;;;;;9.02;6.75;;;;;;;;;;4846109;29;20049;-72
2021/10/10 14:06:17;;;;;;;10.98;6.47;;;;;;;;;;4897552;23;20190;-67
2021/10/10 14:08:44;;;;;;;11.45;6.75;;;;;;;;;;4917193;29;20056;-68
2021/10/10 14:11:10;;;;;;;8.48;6.22;;;;;;;;;;4917277;29;20099;-67
2021/10/10 14:13:38;;;;;;;11.85;5.63;;;;;;;;;;4916529;29;20044;-67
2021/10/10 14:16:05;;;;;;;8.27;5.82;;;;;;;;;;4918695;29;20055;-68
2021/10/10 14:18:32;;;;;;;8.45;5.60;;;;;;;;;;4915521;29;20110;-68
2021/10/10 14:20:58;;;;;;;10.55;5.88;;;;;;;;;;4916993;29;20506;-67
2021/10/10 14:23:26;;;;;;;9.05;6.03;;;;;;;;;;4916151;29;20479;-67
2021/10/10 14:25:52;;;;;;;8.27;5.85;;;;;;;;;;4919575;29;20056;-74
2021/10/10 14:28:20;;;;;;;8.93;5.55;;;;;;;;;;4915488;29;20527;-73
2021/10/10 14:30:46;;;;;;;9.55;5.97;;;;;;;;;;4899839;29;20056;-74
2021/10/10 14:33:20;;;;;;;9.30;5.53;;;;;;;;;;4916444;29;20056;-74
2021/10/10 14:35:48;;;;;;;10.65;5.55;;;;;;;;;;4900315;29;20052;-74
2021/10/10 14:38:15;;;;;;;11.80;6.95;;;;;;;;;;4899610;29;20104;-72